Time;durP1;ratioP1;P1;durP2;ratioP2;P2;SDS_P1;SDS_P2;PMS_P1;PMS_P2;Temp;Humidity;BMP_temperature;BMP_pressure;BME280_temperature;BME280_humidity;BME280_pressure;Samples;Min_cycle;Max_cycle;Signal;HPM_P1;HPM_P2
2022/12/23 00:02:18;;;;;;;1.55;1.33;;;18.30;57.00;;;;;;5053344;28;20179;-57
2022/12/23 00:04:43;;;;;;;1.92;1.50;;;18.30;57.10;;;;;;5053733;28;20171;-58
2022/12/23 00:07:09;;;;;;;2.65;1.65;;;18.30;57.10;;;;;;5054049;28;20174;-58
2022/12/23 00:09:34;;;;;;;2.13;1.55;;;18.20;57.00;;;;;;5052877;28;20186;-58
2022/12/23 00:17:28;;;;;;;1.60;1.33;;;18.20;57.00;;;;;;5053297;28;20667;-58
2022/12/23 00:19:53;;;;;;;2.08;1.55;;;18.20;57.00;;;;;;5053379;28;20206;-58
2022/12/23 00:23:03;;;;;;;2.15;1.75;;;18.20;57.00;;;;;;5053179;28;20172;-58
2022/12/23 00:25:05;;;;;;;2.60;1.73;;;18.20;57.00;;;;;;5053633;28;20182;-58
2022/12/23 00:27:30;;;;;;;2.83;1.88;;;18.20;57.00;;;;;;5053697;28;20167;-57
2022/12/23 00:29:56;;;;;;;2.47;1.58;;;18.20;57.00;;;;;;5052896;28;20205;-57
2022/12/23 00:32:21;;;;;;;3.70;2.15;;;18.20;57.00;;;;;;5053131;28;20171;-58
2022/12/23 00:34:47;;;;;;;1.95;1.27;;;18.10;57.00;;;;;;5053234;28;20171;-58
2022/12/23 00:37:12;;;;;;;4.07;1.73;;;18.10;57.00;;;;;;5053569;28;20197;-59
2022/12/23 00:45:15;;;;;;;2.92;1.85;;;18.10;57.00;;;;;;5052624;28;20185;-59
2022/12/23 00:50:26;;;;;;;1.70;1.58;;;18.10;57.00;;;;;;5052681;28;20272;-58
2022/12/23 00:52:51;;;;;;;1.50;1.40;;;18.10;57.00;;;;;;5053082;28;20198;-58
2022/12/23 00:55:17;;;;;;;1.50;1.40;;;18.00;57.00;;;;;;5052979;28;20652;-58
2022/12/23 00:57:42;;;;;;;1.50;1.40;;;18.00;57.00;;;;;;5052025;28;20174;-57
2022/12/23 01:00:08;;;;;;;2.20;1.60;;;18.00;57.00;;;;;;5053148;28;20223;-58
2022/12/23 01:05:35;;;;;;;2.03;1.60;;;18.00;57.00;;;;;;5052418;28;20174;-58
2022/12/23 01:08:01;;;;;;;3.88;2.17;;;18.00;57.00;;;;;;5053142;28;20253;-58
2022/12/23 01:10:26;;;;;;;1.52;1.40;;;18.00;57.10;;;;;;5053090;28;20171;-58
2022/12/23 01:12:52;;;;;;;2.00;1.60;;;18.00;57.00;;;;;;5052127;28;20178;-58
2022/12/23 01:15:17;;;;;;;2.13;1.90;;;18.00;57.00;;;;;;5052817;28;20234;-58
2022/12/23 01:17:43;;;;;;;2.88;1.80;;;18.00;57.10;;;;;;5052576;28;20179;-58
2022/12/23 01:20:08;;;;;;;2.63;2.00;;;17.90;57.00;;;;;;5052017;28;20620;-59
2022/12/23 01:22:34;;;;;;;2.30;1.90;;;17.90;57.60;;;;;;5052617;28;20618;-58
2022/12/23 01:25:00;;;;;;;2.97;1.63;;;17.90;57.00;;;;;;5052773;28;20645;-58
2022/12/23 01:27:25;;;;;;;2.42;1.58;;;17.90;57.10;;;;;;5052406;28;20182;-58
2022/12/23 01:29:51;;;;;;;2.30;1.83;;;17.90;57.10;;;;;;5052635;28;20179;-58
2022/12/23 01:32:16;;;;;;;2.30;1.60;;;17.90;57.10;;;;;;5052967;28;20167;-58
2022/12/23 01:34:42;;;;;;;4.20;1.70;;;17.90;57.10;;;;;;5051880;28;20689;-58
2022/12/23 01:37:07;;;;;;;2.50;1.90;;;17.90;57.10;;;;;;5052871;28;20278;-59
2022/12/23 01:39:33;;;;;;;2.25;1.85;;;17.90;57.10;;;;;;5051404;28;20289;-58
2022/12/23 01:45:00;;;;;;;2.78;1.65;;;17.90;57.10;;;;;;5056571;28;20201;-58
2022/12/23 01:47:30;;;;;;;1.70;1.42;;;17.80;57.00;;;;;;5056009;28;20645;-57
2022/12/23 01:50:11;;;;;;;1.85;1.63;;;17.80;57.00;;;;;;5055402;28;20175;-59
2022/12/23 01:52:59;;;;;;;1.52;1.42;;;17.80;57.00;;;;;;5056497;28;20182;-58
2022/12/23 01:55:25;;;;;;;2.40;1.75;;;17.80;57.00;;;;;;5055373;28;20233;-54
2022/12/23 01:57:52;;;;;;;2.03;1.50;;;17.80;57.00;;;;;;5056317;28;20175;-58
2022/12/23 02:05:45;;;;;;;2.08;1.75;;;17.80;57.00;;;;;;5056089;28;20224;-58
2022/12/23 02:11:16;;;;;;;2.40;2.03;;;17.70;57.00;;;;;;5055293;28;20209;-58
2022/12/23 02:17:01;;;;;;;2.00;1.67;;;17.70;57.00;;;;;;5054283;28;20194;-58
2022/12/23 02:19:50;;;;;;;2.20;1.48;;;17.70;57.00;;;;;;5055131;28;20293;-58
2022/12/23 02:22:29;;;;;;;1.60;1.50;;;17.70;57.00;;;;;;5054269;28;20272;-58
2022/12/23 02:25:23;;;;;;;2.13;1.48;;;17.70;57.00;;;;;;5054430;28;20537;-57
2022/12/23 02:28:05;;;;;;;1.75;1.13;;;17.70;57.00;;;;;;5054667;28;20182;-58
2022/12/23 02:30:53;;;;;;;2.97;2.05;;;17.70;57.00;;;;;;5053921;28;20178;-57
2022/12/23 02:33:39;;;;;;;1.95;1.75;;;17.70;57.00;;;;;;5054815;28;20266;-58
2022/12/23 02:36:40;;;;;;;2.20;1.58;;;17.70;57.00;;;;;;5054224;28;20182;-59
2022/12/23 02:39:13;;;;;;;1.90;1.52;;;17.70;57.00;;;;;;5054261;28;20249;-59
2022/12/23 02:42:09;;;;;;;3.10;1.75;;;17.70;57.00;;;;;;5054180;28;20183;-58
2022/12/23 02:44:34;;;;;;;2.00;1.52;;;17.60;56.90;;;;;;5053339;28;20183;-58
2022/12/23 02:47:03;;;;;;;2.38;1.60;;;17.70;57.00;;;;;;5055474;28;20175;-58
2022/12/23 02:49:31;;;;;;;2.08;1.65;;;17.70;57.00;;;;;;5055500;28;20258;-58
2022/12/23 02:51:57;;;;;;;1.80;1.50;;;17.70;57.00;;;;;;5053639;28;20238;-58
2022/12/23 02:54:28;;;;;;;1.58;1.45;;;17.70;57.00;;;;;;5053431;28;20201;-58
2022/12/23 02:56:54;;;;;;;1.70;1.60;;;17.60;56.90;;;;;;5054272;28;20633;-57
2022/12/23 02:59:23;;;;;;;1.63;1.52;;;17.60;56.90;;;;;;5054155;28;20253;-57
2022/12/23 03:01:48;;;;;;;2.17;1.30;;;17.60;56.90;;;;;;5053856;28;20187;-58
2022/12/23 03:04:14;;;;;;;1.52;1.42;;;17.60;56.90;;;;;;5053368;28;20179;-58
2022/12/23 03:06:43;;;;;;;2.20;1.52;;;17.60;57.00;;;;;;5054777;28;20174;-58
2022/12/23 03:09:10;;;;;;;1.80;1.30;;;17.60;56.90;;;;;;5054120;28;20179;-58
2022/12/23 03:11:46;;;;;;;2.75;1.50;;;17.60;56.90;;;;;;5053156;28;20550;-58
2022/12/23 03:14:16;;;;;;;1.85;1.33;;;17.60;56.90;;;;;;5053885;28;20188;-59
2022/12/23 03:16:57;;;;;;;1.60;1.50;;;17.60;56.90;;;;;;5053599;28;20187;-58
2022/12/23 03:19:28;;;;;;;2.97;1.80;;;17.60;56.90;;;;;;5053201;28;20221;-59
2022/12/23 03:22:16;;;;;;;2.10;1.50;;;17.60;56.90;;;;;;5054808;28;20173;-58
2022/12/23 03:25:15;;;;;;;3.20;2.08;;;17.60;56.90;;;;;;5054602;28;20179;-57
2022/12/23 03:27:51;;;;;;;1.90;1.50;;;17.60;57.00;;;;;;5054469;28;20187;-58
2022/12/23 03:30:17;;;;;;;2.58;1.38;;;17.60;56.90;;;;;;5053563;28;20587;-58
2022/12/23 03:32:48;;;;;;;1.60;1.50;;;17.50;56.90;;;;;;5052706;28;20229;-58
2022/12/23 03:35:16;;;;;;;1.75;1.42;;;17.50;56.90;;;;;;5053579;28;20194;-59
2022/12/23 03:37:45;;;;;;;1.65;1.38;;;17.50;56.90;;;;;;5053205;28;20175;-59
2022/12/23 03:40:17;;;;;;;1.40;1.30;;;17.50;56.90;;;;;;5052507;28;20268;-59
2022/12/23 03:42:43;;;;;;;2.28;1.20;;;17.50;56.90;;;;;;5053323;28;20178;-59
2022/12/23 03:45:14;;;;;;;1.65;1.55;;;17.50;56.90;;;;;;5053368;28;20175;-58
2022/12/23 03:48:04;;;;;;;1.40;1.30;;;17.50;56.90;;;;;;5052256;28;20637;-59
2022/12/23 03:50:29;;;;;;;1.80;1.33;;;17.50;56.90;;;;;;5053108;28;20232;-59
2022/12/23 03:53:00;;;;;;;1.60;1.50;;;17.50;56.90;;;;;;5052747;28;20171;-58
2022/12/23 03:55:35;;;;;;;1.30;1.20;;;17.50;56.90;;;;;;5052556;28;20225;-58
2022/12/23 03:58:23;;;;;;;1.65;1.30;;;17.50;56.90;;;;;;5053214;28;20186;-58
2022/12/23 04:01:09;;;;;;;1.67;1.58;;;17.50;56.90;;;;;;5053268;28;20293;-58
2022/12/23 04:03:42;;;;;;;1.42;1.33;;;17.50;56.90;;;;;;5052986;28;20189;-57
2022/12/23 04:06:10;;;;;;;1.33;1.23;;;17.50;56.90;;;;;;5052258;28;20544;-58
2022/12/23 04:08:36;;;;;;;1.52;1.33;;;17.50;56.90;;;;;;5051928;28;20175;-58
2022/12/23 04:11:02;;;;;;;2.97;1.42;;;17.40;56.90;;;;;;5052750;28;20258;-58
2022/12/23 04:13:27;;;;;;;2.08;1.58;;;17.50;56.90;;;;;;5053909;28;20179;-59
2022/12/23 04:15:53;;;;;;;1.52;1.33;;;17.40;56.90;;;;;;5052775;28;20226;-59
2022/12/23 04:18:18;;;;;;;1.67;1.55;;;17.40;56.90;;;;;;5052847;28;20186;-59
2022/12/23 04:20:44;;;;;;;1.50;1.40;;;17.40;56.80;;;;;;5053601;28;20215;-59
2022/12/23 04:23:10;;;;;;;1.80;1.30;;;17.50;56.90;;;;;;5053166;28;20163;-59
2022/12/23 04:25:35;;;;;;;1.33;1.23;;;17.40;56.80;;;;;;5053388;28;20258;-57
2022/12/23 04:28:01;;;;;;;1.70;1.33;;;17.40;56.80;;;;;;5053526;28;20770;-59
2022/12/23 04:30:26;;;;;;;1.48;1.17;;;17.40;56.80;;;;;;5053072;28;20597;-59
2022/12/23 04:32:52;;;;;;;1.80;1.20;;;17.40;56.80;;;;;;5053440;28;20684;-58
2022/12/23 04:35:17;;;;;;;1.15;1.05;;;17.40;56.80;;;;;;5053581;28;20179;-58
2022/12/23 04:37:43;;;;;;;1.35;1.25;;;17.40;56.80;;;;;;5052715;28;20221;-58
2022/12/23 04:40:09;;;;;;;1.20;1.10;;;17.40;56.80;;;;;;5053265;28;20221;-58
2022/12/23 04:42:34;;;;;;;1.08;1.00;;;17.40;56.80;;;;;;5052322;28;20175;-59
2022/12/23 04:45:00;;;;;;;1.00;0.95;;;17.40;56.80;;;;;;5053495;28;20258;-59
2022/12/23 04:47:26;;;;;;;1.38;1.20;;;17.40;56.80;;;;;;5053326;28;20175;-58
2022/12/23 04:49:51;;;;;;;1.10;1.00;;;17.40;56.80;;;;;;5052315;28;20175;-58
2022/12/23 04:52:17;;;;;;;1.38;1.00;;;17.40;56.80;;;;;;5053432;28;20258;-58
2022/12/23 04:54:42;;;;;;;1.27;1.10;;;17.30;56.80;;;;;;5052884;28;20270;-58
2022/12/23 04:57:08;;;;;;;1.67;1.20;;;17.30;56.80;;;;;;5052456;28;20183;-58
2022/12/23 04:59:34;;;;;;;1.20;1.10;;;17.30;56.80;;;;;;5052937;28;20295;-57
2022/12/23 05:01:59;;;;;;;1.77;1.23;;;17.30;56.80;;;;;;5053157;28;20269;-58
2022/12/23 05:04:25;;;;;;;1.25;1.10;;;17.30;56.80;;;;;;5052447;28;20751;-58
2022/12/23 05:06:50;;;;;;;0.90;0.90;;;17.30;56.80;;;;;;5052867;28;20566;-58
2022/12/23 05:09:16;;;;;;;1.10;1.02;;;17.30;56.80;;;;;;5053136;28;20304;-58
2022/12/23 05:11:41;;;;;;;1.17;1.10;;;17.30;56.80;;;;;;5052018;28;20262;-58
2022/12/23 05:14:08;;;;;;;1.38;0.90;;;17.30;56.80;;;;;;5053161;28;20172;-58
2022/12/23 05:16:34;;;;;;;1.23;1.10;;;17.30;56.80;;;;;;5052326;28;20226;-58
2022/12/23 05:18:59;;;;;;;1.20;1.10;;;17.30;56.80;;;;;;5052117;28;20179;-58
2022/12/23 05:21:25;;;;;;;1.20;1.10;;;17.30;56.80;;;;;;5052985;28;20183;-58
2022/12/23 05:23:51;;;;;;;1.05;0.95;;;17.30;56.80;;;;;;5052486;28;20175;-58
2022/12/23 05:26:16;;;;;;;1.40;1.27;;;17.30;56.80;;;;;;5052112;28;20197;-56
2022/12/23 05:28:44;;;;;;;1.30;1.02;;;17.30;56.80;;;;;;5052688;28;20171;-58
2022/12/23 05:31:09;;;;;;;1.15;1.05;;;17.30;56.80;;;;;;5052884;28;20256;-58
2022/12/23 05:33:35;;;;;;;1.20;1.10;;;17.30;56.80;;;;;;5051760;28;20634;-58
2022/12/23 05:36:01;;;;;;;1.27;1.17;;;17.30;56.70;;;;;;5052743;28;20626;-58
2022/12/23 05:38:26;;;;;;;1.50;1.13;;;17.30;56.80;;;;;;5052879;28;20672;-58
2022/12/23 05:40:52;;;;;;;1.30;1.13;;;17.30;56.70;;;;;;5051373;28;20203;-58
2022/12/23 05:43:17;;;;;;;1.33;1.00;;;17.30;56.80;;;;;;5052784;28;20186;-58
2022/12/23 05:45:43;;;;;;;1.20;1.10;;;17.20;56.70;;;;;;5051755;28;20544;-58
2022/12/23 05:48:09;;;;;;;1.85;1.10;;;17.20;56.70;;;;;;5052801;28;20183;-58
2022/12/23 05:50:34;;;;;;;1.10;1.08;;;17.20;56.70;;;;;;5052494;28;20243;-58
2022/12/23 05:53:00;;;;;;;1.50;1.10;;;17.30;56.80;;;;;;5051820;28;20213;-58
2022/12/23 05:55:25;;;;;;;1.17;1.08;;;17.20;56.70;;;;;;5052429;28;20186;-58
2022/12/23 05:57:51;;;;;;;1.10;1.00;;;17.20;56.70;;;;;;5052422;28;20171;-58
2022/12/23 06:00:17;;;;;;;1.30;1.20;;;17.20;56.70;;;;;;5051886;28;20237;-57
2022/12/23 06:02:43;;;;;;;1.50;1.40;;;17.20;56.70;;;;;;5052296;28;20665;-59
2022/12/23 06:05:09;;;;;;;1.65;1.02;;;17.20;56.70;;;;;;5052948;28;20175;-58
2022/12/23 06:07:35;;;;;;;1.10;1.00;;;17.20;56.70;;;;;;5051366;28;20654;-58
2022/12/23 06:10:00;;;;;;;1.35;1.10;;;17.20;56.70;;;;;;5052354;28;20187;-59
2022/12/23 06:12:26;;;;;;;1.10;1.02;;;17.20;56.70;;;;;;5052308;28;20163;-58
2022/12/23 06:14:51;;;;;;;1.50;1.23;;;17.20;56.70;;;;;;5051107;28;20226;-59
2022/12/23 06:17:17;;;;;;;1.10;1.00;;;17.20;56.70;;;;;;5052267;28;20258;-59
2022/12/23 06:19:42;;;;;;;1.23;1.10;;;17.20;56.70;;;;;;5052031;28;20307;-59
2022/12/23 06:22:08;;;;;;;1.10;0.98;;;17.20;56.70;;;;;;5051579;28;20203;-58
2022/12/23 06:24:33;;;;;;;0.80;0.80;;;17.10;56.70;;;;;;5051848;28;20211;-58
2022/12/23 06:26:59;;;;;;;1.00;0.90;;;17.20;56.70;;;;;;5052455;28;20210;-58
2022/12/23 06:29:25;;;;;;;1.10;0.98;;;17.20;56.70;;;;;;5053325;28;20171;-59
2022/12/23 06:31:50;;;;;;;1.50;1.40;;;17.10;56.70;;;;;;5055616;28;20186;-58
2022/12/23 06:34:16;;;;;;;0.95;0.93;;;17.10;56.60;;;;;;5055962;28;20175;-58
2022/12/23 06:36:41;;;;;;;1.00;1.00;;;17.10;56.70;;;;;;5054740;28;20174;-59
2022/12/23 06:39:08;;;;;;;1.20;1.10;;;17.10;56.60;;;;;;5055484;28;20182;-59
2022/12/23 06:41:34;;;;;;;1.17;0.90;;;17.10;56.70;;;;;;5054396;28;20217;-59
2022/12/23 06:43:59;;;;;;;1.95;0.90;;;17.10;56.70;;;;;;5054974;28;20195;-59
2022/12/23 06:46:25;;;;;;;0.95;0.80;;;17.10;56.70;;;;;;5055640;28;20174;-59
2022/12/23 06:48:50;;;;;;;0.93;0.90;;;17.10;56.60;;;;;;5055316;28;20175;-59
2022/12/23 06:51:16;;;;;;;1.20;1.10;;;17.10;56.60;;;;;;5054756;28;20167;-59
2022/12/23 06:53:41;;;;;;;1.13;1.00;;;17.10;56.60;;;;;;5055285;28;20280;-59
2022/12/23 06:56:07;;;;;;;1.55;0.93;;;17.10;56.60;;;;;;5054781;28;20167;-58
2022/12/23 06:58:32;;;;;;;1.08;0.75;;;17.10;56.60;;;;;;5055155;28;20537;-58
2022/12/23 07:00:58;;;;;;;1.30;1.20;;;17.10;56.60;;;;;;5055359;28;20673;-58
2022/12/23 07:03:23;;;;;;;1.10;0.73;;;17.10;56.70;;;;;;5054482;28;20199;-58
2022/12/23 07:05:49;;;;;;;1.20;1.10;;;17.10;56.60;;;;;;5054915;28;20183;-59
2022/12/23 07:08:16;;;;;;;0.95;0.90;;;17.10;56.60;;;;;;5055080;28;20177;-59
2022/12/23 07:10:41;;;;;;;1.90;1.10;;;17.10;56.60;;;;;;5054024;28;20179;-58
2022/12/23 07:13:07;;;;;;;1.05;1.00;;;17.10;56.60;;;;;;5055142;28;20182;-59
2022/12/23 07:15:32;;;;;;;0.93;0.90;;;17.10;56.60;;;;;;5054610;28;20227;-59
2022/12/23 07:17:58;;;;;;;1.30;1.20;;;17.10;56.60;;;;;;5054353;28;20198;-59
2022/12/23 07:20:23;;;;;;;0.90;0.90;;;17.10;56.70;;;;;;5054843;28;20199;-59
2022/12/23 07:22:49;;;;;;;1.30;1.20;;;17.00;56.60;;;;;;5054544;28;20172;-58
2022/12/23 07:25:15;;;;;;;0.90;0.90;;;17.10;56.70;;;;;;5054118;28;20182;-58
2022/12/23 07:27:41;;;;;;;1.00;0.90;;;17.10;56.70;;;;;;5054623;28;20541;-58
2022/12/23 07:30:07;;;;;;;0.90;0.80;;;17.00;56.60;;;;;;5054925;28;20626;-58
2022/12/23 07:32:32;;;;;;;1.25;1.15;;;17.00;56.60;;;;;;5053474;28;20171;-58
2022/12/23 07:34:58;;;;;;;1.08;1.02;;;17.00;56.60;;;;;;5054723;28;20186;-58
2022/12/23 07:37:23;;;;;;;0.98;0.80;;;17.00;56.60;;;;;;5054520;28;20178;-59
2022/12/23 07:39:52;;;;;;;1.40;1.13;;;17.00;56.60;;;;;;5053516;28;20207;-59
2022/12/23 07:42:17;;;;;;;1.30;1.00;;;17.00;56.60;;;;;;5054538;28;20207;-59
2022/12/23 07:44:43;;;;;;;0.90;0.90;;;17.00;56.60;;;;;;5054361;28;20580;-59
2022/12/23 07:47:08;;;;;;;1.15;1.05;;;17.00;56.60;;;;;;5053835;28;20179;-60
2022/12/23 07:49:34;;;;;;;1.23;1.13;;;17.00;56.60;;;;;;5054093;28;20173;-59
2022/12/23 07:52:00;;;;;;;1.30;1.00;;;17.00;56.60;;;;;;5054325;28;20179;-57
2022/12/23 07:54:25;;;;;;;0.90;0.90;;;17.00;56.60;;;;;;5053811;28;20254;-59
2022/12/23 07:56:51;;;;;;;1.05;0.95;;;17.00;56.70;;;;;;5054099;28;20268;-59
2022/12/23 07:59:16;;;;;;;0.80;0.80;;;17.00;56.60;;;;;;5053687;28;20249;-55
2022/12/23 08:01:42;;;;;;;0.90;0.90;;;17.00;56.60;;;;;;5053531;28;20175;-58
2022/12/23 08:04:07;;;;;;;0.95;0.90;;;17.00;56.60;;;;;;5054117;28;20173;-59
2022/12/23 08:06:36;;;;;;;1.08;0.98;;;17.00;56.60;;;;;;5052924;28;20179;-59
2022/12/23 08:09:02;;;;;;;0.90;0.90;;;17.00;56.60;;;;;;5053834;28;20617;-59
2022/12/23 08:11:27;;;;;;;0.90;0.90;;;17.00;56.60;;;;;;5054122;28;20197;-58
2022/12/23 08:13:53;;;;;;;0.90;0.90;;;16.90;56.60;;;;;;5052968;28;20171;-59
2022/12/23 08:16:19;;;;;;;1.20;1.10;;;17.00;56.60;;;;;;5053753;28;20238;-59
2022/12/23 08:18:44;;;;;;;1.05;0.90;;;17.00;56.60;;;;;;5053485;28;20622;-59
2022/12/23 08:21:18;;;;;;;0.95;0.85;;;16.90;56.60;;;;;;5052855;28;20232;-60
2022/12/23 08:23:43;;;;;;;1.08;0.98;;;16.90;56.60;;;;;;5053658;28;20171;-56
2022/12/23 08:26:17;;;;;;;0.80;0.80;;;16.90;56.50;;;;;;5053617;28;20282;-57
2022/12/23 08:28:43;;;;;;;0.82;0.82;;;16.90;56.60;;;;;;5052525;28;20541;-56
2022/12/23 08:31:14;;;;;;;1.20;1.10;;;16.90;56.60;;;;;;5053476;28;20177;-59
2022/12/23 08:33:41;;;;;;;0.80;0.80;;;17.00;56.60;;;;;;5053147;28;20248;-59
2022/12/23 08:36:07;;;;;;;1.25;1.00;;;16.90;56.60;;;;;;5052759;28;20625;-60
2022/12/23 08:38:33;;;;;;;1.25;1.15;;;16.90;56.60;;;;;;5053100;28;20626;-59
2022/12/23 08:40:58;;;;;;;1.02;1.00;;;16.90;56.60;;;;;;5053554;28;20226;-59
2022/12/23 08:43:24;;;;;;;1.10;1.00;;;16.90;56.60;;;;;;5052745;28;20163;-59
2022/12/23 08:45:49;;;;;;;1.10;1.00;;;16.90;56.60;;;;;;5053094;28;20226;-59
2022/12/23 08:48:15;;;;;;;0.80;0.80;;;16.90;56.70;;;;;;5053247;28;20178;-59
2022/12/23 08:50:42;;;;;;;0.90;0.90;;;16.90;56.60;;;;;;5052231;28;20182;-59
2022/12/23 08:53:09;;;;;;;1.05;1.02;;;16.90;56.60;;;;;;5051605;28;20167;-59
2022/12/23 08:55:42;;;;;;;0.80;0.80;;;16.90;56.60;;;;;;5052420;28;20186;-58
2022/12/23 08:58:07;;;;;;;0.80;0.80;;;16.90;56.60;;;;;;5053398;28;20186;-59
2022/12/23 09:00:33;;;;;;;1.25;1.15;;;16.90;56.60;;;;;;5052756;28;20203;-58
2022/12/23 09:02:59;;;;;;;1.10;1.00;;;16.90;56.70;;;;;;5052729;28;20179;-75
2022/12/23 09:05:24;;;;;;;2.05;0.98;;;16.90;56.70;;;;;;5054657;28;20626;-70
2022/12/23 09:07:50;;;;;;;1.55;1.10;;;16.90;56.70;;;;;;5052859;28;20261;-71
2022/12/23 09:10:16;;;;;;;1.00;1.00;;;16.90;56.70;;;;;;5052350;28;20672;-70
2022/12/23 09:12:41;;;;;;;2.17;1.33;;;16.90;57.20;;;;;;5052721;28;20193;-71
2022/12/23 09:15:07;;;;;;;1.70;1.30;;;16.90;57.20;;;;;;5052728;28;20231;-72
2022/12/23 09:17:33;;;;;;;1.67;1.58;;;16.90;57.00;;;;;;5052285;28;20270;-72
2022/12/23 09:19:58;;;;;;;2.55;2.28;;;16.90;57.10;;;;;;5052974;28;20298;-73
2022/12/23 09:22:24;;;;;;;1.73;1.63;;;16.90;57.20;;;;;;5052924;28;20199;-71
2022/12/23 09:24:49;;;;;;;5.00;2.15;;;16.90;57.50;;;;;;5051874;28;20221;-71
2022/12/23 09:27:15;;;;;;;3.08;1.50;;;16.80;57.30;;;;;;5052751;28;20199;-71
2022/12/23 09:29:40;;;;;;;2.75;1.42;;;16.90;57.30;;;;;;5052416;28;20168;-70
2022/12/23 09:32:06;;;;;;;1.65;1.50;;;16.90;57.30;;;;;;5051959;28;20175;-71
2022/12/23 09:34:31;;;;;;;2.25;2.03;;;16.80;57.30;;;;;;5052596;28;20249;-70
2022/12/23 09:36:57;;;;;;;2.42;1.88;;;16.80;57.40;;;;;;5052596;28;20517;-71
2022/12/23 09:39:23;;;;;;;3.30;1.60;;;16.80;57.50;;;;;;5051957;28;20206;-71
2022/12/23 09:42:04;;;;;;;2.88;1.90;;;16.80;57.50;;;;;;5052438;28;20179;-70
2022/12/23 09:45:07;;;;;;;1.92;1.70;;;16.80;57.50;;;;;;5052451;28;20628;-70
2022/12/23 09:47:33;;;;;;;2.70;1.73;;;16.80;57.50;;;;;;5051382;28;20182;-70
2022/12/23 09:50:01;;;;;;;1.55;1.45;;;16.80;57.50;;;;;;5051498;28;20201;-72
2022/12/23 09:52:35;;;;;;;2.58;1.75;;;16.80;57.50;;;;;;5050783;28;20186;-71
2022/12/23 09:55:01;;;;;;;3.15;1.67;;;16.90;57.60;;;;;;5051422;28;20174;-72
2022/12/23 09:57:51;;;;;;;2.55;1.70;;;16.80;57.70;;;;;;5052735;28;20186;-71
2022/12/23 10:00:17;;;;;;;2.03;1.70;;;16.80;58.00;;;;;;5045353;28;20228;-70
2022/12/23 10:03:04;;;;;;;2.63;1.58;;;16.80;58.30;;;;;;5052366;28;20262;-66
2022/12/23 10:05:55;;;;;;;2.63;1.67;;;16.80;58.20;;;;;;5054945;28;20187;-66
2022/12/23 10:08:33;;;;;;;2.47;1.40;;;16.80;58.00;;;;;;5056263;28;20697;-66
2022/12/23 10:11:01;;;;;;;2.22;1.80;;;16.80;57.90;;;;;;5054889;28;20178;-65
2022/12/23 10:13:28;;;;;;;3.17;2.00;;;16.90;57.80;;;;;;5055441;28;20258;-66
2022/12/23 10:15:56;;;;;;;2.30;1.60;;;16.90;57.80;;;;;;5055629;28;20305;-65
2022/12/23 10:18:42;;;;;;;3.25;1.92;;;16.90;57.90;;;;;;5054870;28;20589;-66
2022/12/23 10:21:38;;;;;;;3.50;2.17;;;16.90;57.80;;;;;;5054142;28;20226;-66
2022/12/23 10:24:10;;;;;;;3.25;1.80;;;16.90;58.00;;;;;;5054998;28;20250;-65
2022/12/23 10:26:44;;;;;;;1.83;1.60;;;16.90;57.90;;;;;;5054660;28;20186;-69
2022/12/23 10:29:21;;;;;;;5.05;2.50;;;16.90;58.70;;;;;;5054173;28;20182;-69
2022/12/23 10:32:22;;;;;;;3.97;2.03;;;16.90;58.10;;;;;;5055618;28;20183;-67
2022/12/23 10:35:02;;;;;;;4.85;2.40;;;17.00;58.40;;;;;;5053900;28;20217;-69
2022/12/23 10:37:50;;;;;;;5.60;2.10;;;16.90;58.10;;;;;;5055979;28;20252;-66
2022/12/23 10:40:56;;;;;;;4.15;2.50;;;16.90;58.90;;;;;;5054359;28;20207;-73
2022/12/23 10:43:40;;;;;;;5.07;2.30;;;17.00;58.60;;;;;;5032801;28;20171;-71
2022/12/23 10:46:19;;;;;;;3.10;2.13;;;17.00;58.20;;;;;;5017087;28;20187;-71
2022/12/23 10:48:51;;;;;;;3.75;2.08;;;17.00;58.10;;;;;;5040508;28;20202;-72
2022/12/23 10:51:37;;;;;;;2.20;2.00;;;17.00;58.20;;;;;;5055393;28;20182;-73
2022/12/23 10:54:09;;;;;;;2.15;1.92;;;17.00;58.10;;;;;;5055456;28;20179;-73
2022/12/23 10:56:36;;;;;;;5.05;2.40;;;17.00;58.10;;;;;;5053399;28;20171;-71
2022/12/23 10:59:04;;;;;;;5.93;2.13;;;17.00;58.20;;;;;;5055338;28;20182;-70
2022/12/23 11:01:30;;;;;;;3.33;2.30;;;17.00;58.10;;;;;;5054113;28;20336;-70
2022/12/23 11:04:08;;;;;;;3.58;1.70;;;17.00;58.10;;;;;;5054339;28;20629;-71
2022/12/23 11:06:37;;;;;;;2.42;1.70;;;17.00;58.10;;;;;;5053823;28;20315;-70
2022/12/23 11:09:02;;;;;;;3.08;1.50;;;17.00;58.20;;;;;;5054054;28;20258;-70
2022/12/23 11:12:00;;;;;;;4.10;1.90;;;17.00;58.30;;;;;;5053368;28;20228;-69
2022/12/23 11:14:30;;;;;;;3.75;1.90;;;17.00;58.20;;;;;;5054641;28;20229;-68
2022/12/23 11:16:55;;;;;;;3.67;1.85;;;17.00;58.10;;;;;;5054414;28;20191;-73
2022/12/23 11:19:21;;;;;;;2.60;1.90;;;17.00;58.10;;;;;;5054933;28;20225;-70
2022/12/23 11:21:59;;;;;;;1.67;1.58;;;17.00;58.20;;;;;;5054634;28;20597;-69
2022/12/23 11:24:26;;;;;;;4.78;1.80;;;17.00;58.30;;;;;;5052917;28;20253;-72
2022/12/23 11:27:02;;;;;;;2.08;1.80;;;17.00;58.40;;;;;;5054465;28;20661;-74
2022/12/23 11:29:35;;;;;;;3.40;2.53;;;17.00;58.10;;;;;;5053849;28;20523;-73
2022/12/23 11:32:02;;;;;;;3.00;2.47;;;16.90;58.10;;;;;;5053126;28;20552;-75
2022/12/23 11:34:29;;;;;;;3.00;2.53;;;17.00;58.00;;;;;;5054838;28;20190;-76
2022/12/23 11:36:56;;;;;;;4.68;3.25;;;16.90;58.00;;;;;;5053210;28;20206;-81
2022/12/23 11:39:24;;;;;;;4.22;2.80;;;16.90;58.00;;;;;;5052545;28;20728;-73
2022/12/23 11:41:51;;;;;;;4.25;2.40;;;16.90;58.00;;;;;;5052981;28;20669;-72
2022/12/23 11:44:31;;;;;;;6.50;2.60;;;16.90;58.60;;;;;;5053432;28;20189;-72
2022/12/23 11:46:56;;;;;;;5.72;2.13;;;16.90;58.00;;;;;;5053336;28;20226;-69
2022/12/23 11:49:27;;;;;;;4.80;2.75;;;16.90;58.40;;;;;;5053123;28;20660;-66
2022/12/23 11:52:04;;;;;;;3.08;2.78;;;16.90;58.10;;;;;;5053506;28;20250;-66
2022/12/23 11:54:30;;;;;;;3.92;2.90;;;16.90;58.20;;;;;;5054089;28;20254;-66
2022/12/23 11:56:56;;;;;;;2.47;2.28;;;16.90;58.10;;;;;;5053982;28;20592;-68
2022/12/23 11:59:29;;;;;;;5.35;3.00;;;16.90;58.50;;;;;;5053526;28;20209;-70
2022/12/23 12:02:10;;;;;;;4.50;3.13;;;16.90;58.50;;;;;;5053570;28;20249;-68
2022/12/23 12:04:36;;;;;;;6.72;3.97;;;16.80;58.30;;;;;;5052875;28;20261;-70
2022/12/23 12:07:02;;;;;;;3.72;3.17;;;16.70;58.40;;;;;;5052280;28;20302;-72
2022/12/23 12:09:29;;;;;;;4.40;2.65;;;16.80;58.50;;;;;;5053930;28;20183;-72
2022/12/23 12:12:04;;;;;;;3.42;2.33;;;16.80;58.30;;;;;;5052339;28;20179;-74
2022/12/23 12:14:36;;;;;;;2.83;2.38;;;16.90;58.30;;;;;;5051779;28;20205;-70
2022/12/23 12:17:12;;;;;;;4.75;2.60;;;16.90;58.40;;;;;;5053986;28;20313;-76
2022/12/23 12:19:42;;;;;;;3.08;2.25;;;16.90;58.30;;;;;;5051811;28;20202;-74
2022/12/23 12:22:13;;;;;;;3.60;2.28;;;16.90;58.40;;;;;;5052437;28;20179;-75
2022/12/23 12:24:51;;;;;;;3.13;2.20;;;16.90;58.90;;;;;;5052332;28;20290;-74
2022/12/23 12:27:16;;;;;;;6.68;2.88;;;16.90;58.30;;;;;;5050890;28;20210;-73
2022/12/23 12:29:51;;;;;;;2.65;2.45;;;16.90;58.30;;;;;;5052454;28;20623;-74
2022/12/23 12:32:32;;;;;;;2.85;2.42;;;16.90;58.30;;;;;;5052366;28;20258;-72
2022/12/23 12:35:04;;;;;;;2.55;2.22;;;16.90;58.30;;;;;;5051751;28;20549;-73
2022/12/23 12:37:32;;;;;;;3.35;2.55;;;17.00;58.40;;;;;;5052031;28;20186;-73
2022/12/23 12:40:26;;;;;;;2.95;2.45;;;16.90;58.20;;;;;;5052282;28;20316;-75
2022/12/23 12:43:14;;;;;;;4.00;2.83;;;16.90;58.50;;;;;;5052571;28;20266;-74
2022/12/23 12:46:00;;;;;;;4.43;2.55;;;16.90;58.40;;;;;;5052252;28;20179;-75
2022/12/23 12:48:44;;;;;;;3.17;2.88;;;16.90;58.70;;;;;;5048568;28;20673;-76
2022/12/23 12:51:18;;;;;;;4.65;3.00;;;16.90;58.40;;;;;;5052284;28;20214;-79
2022/12/23 12:54:02;;;;;;;4.90;2.88;;;16.90;58.40;;;;;;5051914;28;20173;-77
2022/12/23 12:56:49;;;;;;;3.92;3.28;;;16.90;58.70;;;;;;5050533;28;20244;-77
2022/12/23 12:59:16;;;;;;;4.63;3.28;;;16.80;58.50;;;;;;5050882;28;20209;-78
2022/12/23 13:01:52;;;;;;;5.07;3.97;;;16.80;58.40;;;;;;5050223;28;20258;-78
2022/12/23 13:04:39;;;;;;;6.13;3.55;;;16.80;58.50;;;;;;5050972;28;20185;-76
2022/12/23 13:07:30;;;;;;;4.28;3.78;;;16.80;58.40;;;;;;5052096;28;20237;-77
2022/12/23 13:10:12;;;;;;;5.10;3.97;;;16.80;58.40;;;;;;5050386;28;20237;-75
2022/12/23 13:12:47;;;;;;;5.05;4.07;;;16.80;58.40;;;;;;5051832;28;20175;-77
2022/12/23 13:15:21;;;;;;;4.50;3.50;;;16.80;58.30;;;;;;5052790;28;20594;-77
2022/12/23 13:18:00;;;;;;;4.30;3.90;;;16.80;58.30;;;;;;5050353;28;20182;-77
2022/12/23 13:20:35;;;;;;;4.28;3.88;;;16.80;58.30;;;;;;5056793;28;20580;-78
2022/12/23 13:23:34;;;;;;;4.20;3.60;;;16.70;58.30;;;;;;5037055;28;20171;-79
2022/12/23 13:26:04;;;;;;;3.75;3.45;;;16.80;58.30;;;;;;5071554;28;20249;-77
2022/12/23 13:28:47;;;;;;;3.70;3.40;;;16.70;58.90;;;;;;5044587;28;20186;-76
2022/12/23 13:31:32;;;;;;;4.35;3.88;;;16.80;58.40;;;;;;5050930;28;20175;-75
2022/12/23 13:34:07;;;;;;;4.47;3.70;;;16.70;58.20;;;;;;5036095;28;20171;-74
2022/12/23 13:36:35;;;;;;;4.78;3.75;;;16.70;58.30;;;;;;5059349;28;20257;-75